createdAt,value
2023-02-15T00:02:56.105Z,81
2023-02-15T00:06:21.299Z,81
2023-02-15T00:09:46.457Z,81
2023-02-15T00:13:11.663Z,81
2023-02-15T00:16:36.851Z,81
2023-02-15T00:20:01.964Z,82
2023-02-15T00:23:27.117Z,81
2023-02-15T00:26:52.276Z,82
2023-02-15T00:30:17.539Z,81
2023-02-15T00:33:42.636Z,80
2023-02-15T00:37:07.836Z,80
2023-02-15T00:40:32.976Z,80
2023-02-15T00:43:58.170Z,79
2023-02-15T00:47:23.381Z,80
2023-02-15T00:50:48.534Z,81
2023-02-15T00:54:13.688Z,81
2023-02-15T00:57:38.865Z,81
2023-02-15T01:01:04.061Z,80
2023-02-15T01:04:29.281Z,80
2023-02-15T01:07:54.673Z,79
2023-02-15T01:11:19.555Z,79
2023-02-15T01:14:44.714Z,79
2023-02-15T01:18:09.890Z,80
2023-02-15T01:21:35.083Z,79
2023-02-15T01:25:00.238Z,78
2023-02-15T01:28:25.407Z,80
2023-02-15T01:31:50.699Z,80
2023-02-15T01:35:15.745Z,80
2023-02-15T01:38:40.966Z,81
2023-02-15T01:42:06.105Z,82
2023-02-15T01:45:31.254Z,81
2023-02-15T01:48:56.430Z,81
2023-02-15T01:52:21.606Z,82
2023-02-15T01:55:46.776Z,82
2023-02-15T01:59:11.926Z,82
2023-02-15T02:02:37.099Z,83
2023-02-15T02:06:02.567Z,83
2023-02-15T02:09:27.400Z,84
2023-02-15T02:12:52.652Z,85
2023-02-15T02:16:17.795Z,83
2023-02-15T02:19:42.895Z,82
2023-02-15T02:23:08.072Z,81
2023-02-15T02:26:33.231Z,81
2023-02-15T02:29:58.473Z,80
2023-02-15T02:33:23.581Z,81
2023-02-15T02:36:48.779Z,80
2023-02-15T02:40:13.976Z,79
2023-02-15T02:43:39.114Z,80
2023-02-15T02:47:04.301Z,81
2023-02-15T02:50:29.438Z,80
2023-02-15T02:53:54.607Z,81
2023-02-15T02:57:19.780Z,81
2023-02-15T03:00:44.953Z,80
2023-02-15T03:04:10.134Z,80
2023-02-15T03:07:35.296Z,80
2023-02-15T03:11:00.486Z,80
2023-02-15T03:14:25.667Z,80
2023-02-15T03:17:50.852Z,80
2023-02-15T03:21:16.019Z,80
2023-02-15T03:24:41.170Z,80
2023-02-15T03:28:06.378Z,81
2023-02-15T03:31:31.681Z,81
2023-02-15T03:34:56.683Z,81
2023-02-15T03:38:21.900Z,81
2023-02-15T03:41:47.048Z,82
2023-02-15T03:45:12.210Z,82
2023-02-15T03:48:37.403Z,81
2023-02-15T03:52:02.569Z,81
2023-02-15T03:55:27.794Z,82
2023-02-15T03:58:52.969Z,81
2023-02-15T04:02:18.141Z,82
2023-02-15T04:05:43.330Z,83
2023-02-15T04:09:08.503Z,83
2023-02-15T04:12:33.673Z,84
2023-02-15T04:15:58.996Z,83
2023-02-15T04:19:24.008Z,83
2023-02-15T04:22:49.172Z,82
2023-02-15T04:26:14.375Z,82
2023-02-15T04:29:39.603Z,82
2023-02-15T04:33:04.733Z,81
2023-02-15T04:36:29.920Z,81
2023-02-15T04:39:55.100Z,82
2023-02-15T04:43:20.270Z,81
2023-02-15T04:46:45.496Z,81
2023-02-15T04:50:10.664Z,81
2023-02-15T04:53:35.870Z,80
2023-02-15T04:57:01.098Z,82
2023-02-15T05:00:26.293Z,81
2023-02-15T05:03:51.514Z,80
2023-02-15T05:07:16.654Z,82
2023-02-15T05:10:41.828Z,81
2023-02-15T05:14:07.028Z,80
2023-02-15T05:17:32.223Z,81
2023-02-15T05:20:57.432Z,82
2023-02-15T05:24:22.573Z,82
2023-02-15T05:27:47.780Z,82
2023-02-15T05:31:13.249Z,82
2023-02-15T05:34:38.195Z,81
2023-02-15T05:38:03.393Z,80
2023-02-15T05:41:28.583Z,80
2023-02-15T05:44:53.798Z,81
2023-02-15T05:48:18.973Z,82
2023-02-15T05:51:44.162Z,82
2023-02-15T05:55:09.392Z,82
2023-02-15T05:58:34.762Z,82
2023-02-15T06:02:00.021Z,81
2023-02-15T06:05:25.251Z,82
2023-02-15T06:08:50.456Z,82
2023-02-15T06:12:15.676Z,83
2023-02-15T06:15:40.867Z,83
2023-02-15T06:19:06.067Z,83
2023-02-15T06:22:31.219Z,82
2023-02-15T06:25:56.446Z,82
2023-02-15T06:29:21.685Z,82
2023-02-15T06:32:46.863Z,82
2023-02-15T06:36:12.074Z,81
2023-02-15T06:39:37.312Z,82
2023-02-15T06:43:02.483Z,82
2023-02-15T06:46:27.756Z,83
2023-02-15T06:49:52.836Z,83
2023-02-15T06:53:18.003Z,83
2023-02-15T06:56:43.204Z,84
2023-02-15T07:00:08.407Z,85
2023-02-15T07:03:33.687Z,85
2023-02-15T07:06:59.046Z,85
2023-02-15T07:10:24.258Z,84
2023-02-15T07:13:49.460Z,83
2023-02-15T07:17:32.709Z,84
2023-02-15T07:20:39.947Z,84
2023-02-15T07:24:05.127Z,83
2023-02-15T07:27:30.371Z,84
2023-02-15T07:30:55.617Z,83
2023-02-15T07:34:20.809Z,83
2023-02-15T07:37:46.078Z,82
2023-02-15T07:41:11.282Z,82
2023-02-15T07:44:36.470Z,82
2023-02-15T07:48:01.671Z,82
2023-02-15T07:51:26.927Z,82
2023-02-15T07:54:52.241Z,83
2023-02-15T07:58:17.344Z,82
2023-02-15T08:01:42.563Z,82
2023-02-15T08:05:08.121Z,81
2023-02-15T08:08:33.355Z,81
2023-02-15T08:11:58.594Z,81
2023-02-15T08:15:23.765Z,80
2023-02-15T08:18:49.020Z,80
2023-02-15T08:22:14.415Z,80
2023-02-15T08:25:39.634Z,80
2023-02-15T08:29:04.892Z,80
2023-02-15T08:32:30.075Z,80
2023-02-15T08:35:55.291Z,80
2023-02-15T08:39:20.612Z,79
2023-02-15T08:42:45.838Z,76
2023-02-15T08:46:11.205Z,76
2023-02-15T08:49:36.366Z,74
2023-02-15T08:53:01.624Z,72
2023-02-15T08:56:26.874Z,71
2023-02-15T08:59:52.067Z,71
2023-02-15T09:03:17.369Z,69
2023-02-15T09:06:42.554Z,70
2023-02-15T09:10:07.761Z,69
2023-02-15T09:13:32.968Z,70
2023-02-15T09:16:58.257Z,69
2023-02-15T09:20:23.410Z,69
2023-02-15T09:23:48.585Z,68
2023-02-15T09:27:13.792Z,68
2023-02-15T09:30:39.158Z,69
2023-02-15T09:34:04.244Z,67
2023-02-15T09:37:29.599Z,66
2023-02-15T09:40:54.680Z,65
2023-02-15T09:44:19.895Z,62
2023-02-15T09:47:45.080Z,60
2023-02-15T09:51:10.313Z,61
2023-02-15T09:54:35.518Z,60
2023-02-15T09:58:00.730Z,61
2023-02-15T10:01:26.212Z,61
2023-02-15T10:04:51.216Z,63
2023-02-15T10:08:16.364Z,61
2023-02-15T10:11:41.663Z,60
2023-02-15T10:15:06.785Z,62
2023-02-15T10:18:31.988Z,61
2023-02-15T10:21:57.192Z,59
2023-02-15T10:25:22.389Z,58
2023-02-15T10:28:47.641Z,57
2023-02-15T10:32:13.020Z,58
2023-02-15T10:35:38.023Z,57
2023-02-15T10:39:03.212Z,57
2023-02-15T10:42:28.465Z,57
2023-02-15T10:45:53.672Z,59
2023-02-15T10:49:18.826Z,57
2023-02-15T10:52:44.020Z,58
2023-02-15T10:56:09.260Z,58
2023-02-15T10:59:34.524Z,57
2023-02-15T11:02:59.764Z,59
2023-02-15T11:06:24.942Z,61
2023-02-15T11:09:50.112Z,58
2023-02-15T11:13:15.325Z,60
2023-02-15T11:16:40.539Z,59
2023-02-15T11:20:05.796Z,59
2023-02-15T11:23:31.541Z,61
2023-02-15T11:26:56.833Z,58
2023-02-15T11:30:22.081Z,59
2023-02-15T11:33:47.193Z,58
2023-02-15T11:37:12.442Z,58
2023-02-15T11:40:37.633Z,59
2023-02-15T11:44:02.812Z,58
2023-02-15T11:47:28.038Z,58
2023-02-15T11:50:53.259Z,58
2023-02-15T11:54:18.488Z,60
2023-02-15T11:57:43.686Z,59
2023-02-15T12:01:08.882Z,59
2023-02-15T12:04:34.072Z,57
2023-02-15T12:07:59.301Z,59
2023-02-15T12:11:24.553Z,58
2023-02-15T12:14:49.741Z,58
2023-02-15T12:18:14.960Z,58
2023-02-15T12:21:40.149Z,56
2023-02-15T12:25:05.328Z,57
2023-02-15T12:28:30.578Z,54
2023-02-15T12:31:55.896Z,56
2023-02-15T12:35:20.997Z,55
2023-02-15T12:38:46.183Z,55
2023-02-15T12:42:11.429Z,57
2023-02-15T12:45:36.705Z,58
2023-02-15T12:49:01.876Z,56
2023-02-15T12:52:27.124Z,56
2023-02-15T12:55:52.319Z,56
2023-02-15T12:59:23.077Z,55
2023-02-15T13:02:43.052Z,58
2023-02-15T13:06:08.231Z,56
2023-02-15T13:09:33.490Z,56
2023-02-15T13:12:58.714Z,57
2023-02-15T13:16:23.934Z,57
2023-02-15T13:19:49.224Z,58
2023-02-15T13:23:14.313Z,58
2023-02-15T13:26:39.533Z,58
2023-02-15T13:30:04.804Z,58
2023-02-15T13:33:29.957Z,58
2023-02-15T13:36:55.246Z,59
2023-02-15T13:40:20.355Z,59
2023-02-15T13:43:45.587Z,59
2023-02-15T13:47:10.798Z,59
2023-02-15T13:50:36.060Z,57
2023-02-15T13:54:01.278Z,58
2023-02-15T13:57:26.467Z,57
2023-02-15T14:00:51.748Z,57
2023-02-15T14:04:16.978Z,54
2023-02-15T14:07:42.128Z,56
2023-02-15T14:11:07.346Z,56
2023-02-15T14:14:32.523Z,56
2023-02-15T14:17:57.762Z,55
2023-02-15T14:21:22.951Z,57
2023-02-15T14:24:48.166Z,59
2023-02-15T14:28:13.413Z,60
2023-02-15T15:04:58.597Z,67
2023-02-15T15:08:23.796Z,67
2023-02-15T15:11:49.028Z,66
2023-02-15T15:15:14.263Z,66
2023-02-15T15:18:39.494Z,66
2023-02-15T15:22:04.771Z,66
2023-02-15T15:25:29.971Z,66
2023-02-15T15:28:55.175Z,66
2023-02-15T15:32:20.385Z,65
2023-02-15T15:35:45.596Z,65
2023-02-15T15:39:10.832Z,66
2023-02-15T15:42:36.023Z,66
2023-02-15T15:46:01.585Z,66
2023-02-15T15:49:27.354Z,66
2023-02-15T15:52:51.699Z,67
2023-02-15T15:56:16.883Z,68
2023-02-15T15:59:42.091Z,69
2023-02-15T16:03:07.450Z,69
2023-02-15T16:06:32.625Z,69
2023-02-15T16:09:57.748Z,69
2023-02-15T16:13:23.001Z,69
2023-02-15T16:16:48.180Z,70
2023-02-15T16:20:13.377Z,70
2023-02-15T16:23:38.600Z,70
2023-02-15T16:27:03.805Z,70
2023-02-15T16:30:29.152Z,70
2023-02-15T16:33:54.257Z,70
2023-02-15T16:37:19.488Z,70
2023-02-15T16:40:44.677Z,70
2023-02-15T16:44:09.907Z,71
2023-02-15T16:47:35.115Z,71
2023-02-15T16:51:00.345Z,71
2023-02-15T16:54:25.538Z,71
2023-02-15T16:57:50.785Z,71
2023-02-15T17:01:16.078Z,72
2023-02-15T17:04:41.178Z,72
2023-02-15T17:08:06.352Z,72
2023-02-15T17:11:31.566Z,71
2023-02-15T17:14:56.787Z,72
2023-02-15T17:18:21.998Z,73
2023-02-15T17:21:47.268Z,73
2023-02-15T17:25:12.443Z,75
2023-02-15T17:28:37.645Z,75
2023-02-15T17:32:02.977Z,75
2023-02-15T17:35:28.029Z,75
2023-02-15T17:38:53.313Z,75
2023-02-15T17:42:18.487Z,75
2023-02-15T17:45:43.797Z,74
2023-02-15T17:49:08.977Z,75
2023-02-15T17:52:34.174Z,75
2023-02-15T17:55:59.424Z,75
2023-02-15T17:59:24.590Z,75
2023-02-15T18:02:49.786Z,75
2023-02-15T18:06:14.995Z,75
2023-02-15T18:09:40.181Z,76
2023-02-15T18:13:05.433Z,76
2023-02-15T18:16:30.614Z,77
2023-02-15T18:19:55.767Z,76
2023-02-15T18:23:20.929Z,76
2023-02-15T18:26:46.136Z,77
2023-02-15T18:30:11.399Z,76
2023-02-15T18:33:36.509Z,76
2023-02-15T18:37:01.662Z,76
2023-02-15T18:40:26.922Z,76
2023-02-15T18:43:52.167Z,76
2023-02-15T18:47:17.485Z,75
2023-02-15T18:50:42.773Z,76
2023-02-15T18:54:07.969Z,76
2023-02-15T18:57:33.233Z,75
2023-02-15T19:00:58.498Z,75
2023-02-15T19:04:25.756Z,75
2023-02-15T19:07:48.937Z,75
2023-02-15T19:11:14.184Z,74
2023-02-15T19:14:39.554Z,74
2023-02-15T19:18:04.754Z,74
2023-02-15T19:21:30.114Z,73
2023-02-15T19:24:55.329Z,74
2023-02-15T19:28:20.535Z,74
2023-02-15T19:31:45.906Z,74
2023-02-15T19:35:10.990Z,73
2023-02-15T19:38:36.228Z,74
2023-02-15T19:42:01.468Z,73
2023-02-15T19:45:26.680Z,75
2023-02-15T19:48:51.960Z,74
2023-02-15T19:52:17.248Z,74
2023-02-15T19:55:42.550Z,75
2023-02-15T19:59:07.757Z,74
2023-02-15T20:02:32.981Z,74
2023-02-15T20:05:58.277Z,75
2023-02-15T20:09:23.508Z,75
2023-02-15T20:12:48.804Z,75
2023-02-15T20:16:14.018Z,75
2023-02-15T20:19:39.239Z,75
2023-02-15T20:23:04.470Z,75
2023-02-15T20:26:29.775Z,76
2023-02-15T20:29:55.046Z,77
2023-02-15T20:33:20.231Z,77
2023-02-15T20:36:45.502Z,78
2023-02-15T20:40:10.713Z,79
2023-02-15T20:43:36.005Z,79
2023-02-15T20:47:01.278Z,79
2023-02-15T20:50:26.539Z,80
2023-02-15T20:53:51.743Z,80
2023-02-15T20:57:16.995Z,81
2023-02-15T21:00:42.242Z,81
2023-02-15T21:04:08.844Z,81
2023-02-15T21:07:32.738Z,81
2023-02-15T21:10:57.970Z,80
2023-02-15T21:14:23.191Z,80
2023-02-15T21:17:48.397Z,79
2023-02-15T21:21:13.665Z,78
2023-02-15T21:24:38.860Z,78
2023-02-15T21:28:04.069Z,78
2023-02-15T21:31:29.423Z,78
2023-02-15T21:34:54.489Z,77
2023-02-15T21:38:19.734Z,78
2023-02-15T21:41:46.732Z,78
2023-02-15T21:45:10.120Z,78
2023-02-15T21:48:35.326Z,79
2023-02-15T21:52:00.542Z,80
2023-02-15T21:55:25.818Z,80
2023-02-15T21:58:50.993Z,79
2023-02-15T22:02:16.243Z,79
2023-02-15T22:05:41.485Z,80
2023-02-15T22:09:06.716Z,80
2023-02-15T22:12:31.949Z,82
2023-02-15T22:15:57.248Z,82
2023-02-15T22:19:22.389Z,82
2023-02-15T22:22:47.625Z,84
2023-02-15T22:26:12.820Z,84
2023-02-15T22:29:38.029Z,85
2023-02-15T22:33:03.211Z,86
2023-02-15T22:36:28.437Z,87
2023-02-15T22:39:53.612Z,87
2023-02-15T22:43:18.823Z,88
2023-02-15T22:46:44.093Z,89
2023-02-15T22:50:09.288Z,89
2023-02-15T22:53:34.498Z,89
2023-02-15T22:56:59.707Z,90
2023-02-15T23:00:24.897Z,90
2023-02-15T23:03:50.230Z,90
2023-02-15T23:07:15.364Z,90
2023-02-15T23:10:40.592Z,89
2023-02-15T23:14:05.833Z,89
2023-02-15T23:17:31.075Z,88
2023-02-15T23:20:56.317Z,88
2023-02-15T23:24:22.363Z,88
2023-02-15T23:27:46.730Z,87
2023-02-15T23:31:12.013Z,87
2023-02-15T23:34:37.140Z,87
2023-02-15T23:38:02.386Z,87
2023-02-15T23:41:27.596Z,87
2023-02-15T23:44:52.797Z,86
2023-02-15T23:48:19.693Z,86
2023-02-15T23:51:44.909Z,86
2023-02-15T23:55:10.147Z,85
2023-02-15T23:58:35.338Z,84
